sensor_id;sensor_type;location;lat;lon;timestamp;pressure;altitude;pressure_sealevel;temperature;humidity
48517;BME280;34310;51.904;4.256;2024-02-16T00:00:32;100959.47;;;16.17;64.38
48517;BME280;34310;51.904;4.256;2024-02-16T00:02:59;100962.16;;;16.18;64.47
48517;BME280;34310;51.904;4.256;2024-02-16T00:05:26;100962.16;;;16.18;64.52
48517;BME280;34310;51.904;4.256;2024-02-16T00:07:52;100962.97;;;16.17;64.44
48517;BME280;34310;51.904;4.256;2024-02-16T00:10:19;100955.16;;;16.17;64.38
48517;BME280;34310;51.904;4.256;2024-02-16T00:12:45;100950.78;;;16.16;64.24
48517;BME280;34310;51.904;4.256;2024-02-16T00:15:12;100948.91;;;16.14;64.41
48517;BME280;34310;51.904;4.256;2024-02-16T00:17:39;100950.69;;;16.15;64.46
48517;BME280;34310;51.904;4.256;2024-02-16T00:20:06;100954.28;;;16.17;64.51
48517;BME280;34310;51.904;4.256;2024-02-16T00:22:33;100962.09;;;16.17;64.48
48517;BME280;34310;51.904;4.256;2024-02-16T00:25:00;100947.22;;;16.14;64.53
48517;BME280;34310;51.904;4.256;2024-02-16T00:27:26;100945.41;;;16.13;64.46
48517;BME280;34310;51.904;4.256;2024-02-16T00:29:53;100950.69;;;16.15;64.50
48517;BME280;34310;51.904;4.256;2024-02-16T00:32:19;100938.41;;;16.12;64.31
48517;BME280;34310;51.904;4.256;2024-02-16T00:34:46;100937.59;;;16.13;64.25
48517;BME280;34310;51.904;4.256;2024-02-16T00:37:13;100946.31;;;16.14;64.50
48517;BME280;34310;51.904;4.256;2024-02-16T00:39:39;100933.13;;;16.10;64.28
48517;BME280;34310;51.904;4.256;2024-02-16T00:42:06;100939.31;;;16.13;64.46
48517;BME280;34310;51.904;4.256;2024-02-16T00:44:33;100935.81;;;16.12;64.40
48517;BME280;34310;51.904;4.256;2024-02-16T00:46:59;100926.06;;;16.08;64.39
48517;BME280;34310;51.904;4.256;2024-02-16T00:49:26;100917.50;;;16.10;64.52
48517;BME280;34310;51.904;4.256;2024-02-16T00:51:53;100921.81;;;16.10;64.29
48517;BME280;34310;51.904;4.256;2024-02-16T00:54:22;100926.22;;;16.11;64.38
48517;BME280;34310;51.904;4.256;2024-02-16T00:56:49;100940.94;;;16.10;64.75
48517;BME280;34310;51.904;4.256;2024-02-16T00:59:15;100926.13;;;16.09;64.51
48517;BME280;34310;51.904;4.256;2024-02-16T01:01:42;100926.13;;;16.09;64.42
48517;BME280;34310;51.904;4.256;2024-02-16T01:04:08;100919.16;;;16.08;64.54
48517;BME280;34310;51.904;4.256;2024-02-16T01:06:35;100907.84;;;16.08;64.55
48517;BME280;34310;51.904;4.256;2024-02-16T01:09:02;100913.94;;;16.08;64.62
48517;BME280;34310;51.904;4.256;2024-02-16T01:11:28;100903.38;;;16.05;64.40
48517;BME280;34310;51.904;4.256;2024-02-16T01:13:55;100901.72;;;16.07;64.57
48517;BME280;34310;51.904;4.256;2024-02-16T01:16:22;100891.91;;;16.02;64.47
48517;BME280;34310;51.904;4.256;2024-02-16T01:18:48;100903.38;;;16.05;64.30
48517;BME280;34310;51.904;4.256;2024-02-16T01:21:15;100904.25;;;16.06;64.61
48517;BME280;34310;51.904;4.256;2024-02-16T01:23:41;100912.00;;;16.04;64.46
48517;BME280;34310;51.904;4.256;2024-02-16T01:26:08;100906.78;;;16.04;64.33
48517;BME280;34310;51.904;4.256;2024-02-16T01:28:34;100898.91;;;16.03;64.51
48517;BME280;34310;51.904;4.256;2024-02-16T01:31:01;100897.19;;;16.03;64.59
48517;BME280;34310;51.904;4.256;2024-02-16T01:33:27;100899.78;;;16.03;64.69
48517;BME280;34310;51.904;4.256;2024-02-16T01:35:54;100893.56;;;16.00;64.67
48517;BME280;34310;51.904;4.256;2024-02-16T01:38:21;100898.75;;;16.00;64.56
48517;BME280;34310;51.904;4.256;2024-02-16T01:40:47;100903.22;;;16.02;64.54
48517;BME280;34310;51.904;4.256;2024-02-16T01:43:19;100890.78;;;15.97;64.66
48517;BME280;34310;51.904;4.256;2024-02-16T01:45:45;100892.66;;;15.99;64.68
48517;BME280;34310;51.904;4.256;2024-02-16T01:48:14;100901.44;;;16.01;64.58
48517;BME280;34310;51.904;4.256;2024-02-16T01:50:43;100895.34;;;16.01;64.42
48517;BME280;34310;51.904;4.256;2024-02-16T01:53:11;100899.56;;;15.99;64.57
48517;BME280;34310;51.904;4.256;2024-02-16T01:55:38;100898.75;;;16.00;64.69
48517;BME280;34310;51.904;4.256;2024-02-16T01:58:05;100904.72;;;15.97;64.51
48517;BME280;34310;51.904;4.256;2024-02-16T02:00:31;100904.72;;;15.97;64.75
48517;BME280;34310;51.904;4.256;2024-02-16T02:02:58;100908.22;;;15.98;64.70
48517;BME280;34310;51.904;4.256;2024-02-16T02:05:25;100909.91;;;15.97;64.66
48517;BME280;34310;51.904;4.256;2024-02-16T02:07:51;100898.47;;;15.94;64.67
48517;BME280;34310;51.904;4.256;2024-02-16T02:10:18;100896.00;;;15.97;64.81
48517;BME280;34310;51.904;4.256;2024-02-16T02:12:44;100897.56;;;15.93;64.70
48517;BME280;34310;51.904;4.256;2024-02-16T02:15:11;100902.91;;;15.96;64.55
48517;BME280;34310;51.904;4.256;2024-02-16T02:17:38;100901.97;;;15.94;64.76
48517;BME280;34310;51.904;4.256;2024-02-16T02:20:05;100900.25;;;15.95;64.70
48517;BME280;34310;51.904;4.256;2024-02-16T02:22:32;100894.06;;;15.93;64.68
48517;BME280;34310;51.904;4.256;2024-02-16T02:24:59;100895.03;;;15.95;64.77
48517;BME280;34310;51.904;4.256;2024-02-16T02:27:25;100892.44;;;15.95;64.87
48517;BME280;34310;51.904;4.256;2024-02-16T02:29:52;100897.63;;;15.95;64.78
48517;BME280;34310;51.904;4.256;2024-02-16T02:32:18;100892.34;;;15.93;64.77
48517;BME280;34310;51.904;4.256;2024-02-16T02:34:45;100883.66;;;15.93;64.80
48517;BME280;34310;51.904;4.256;2024-02-16T02:37:12;100891.53;;;15.94;64.57
48517;BME280;34310;51.904;4.256;2024-02-16T02:39:38;100883.56;;;15.91;64.74
48517;BME280;34310;51.904;4.256;2024-02-16T02:42:05;100879.25;;;15.92;64.72
48517;BME280;34310;51.904;4.256;2024-02-16T02:44:32;100885.38;;;15.92;64.69
48517;BME280;34310;51.904;4.256;2024-02-16T02:46:58;100879.19;;;15.90;64.89
48517;BME280;34310;51.904;4.256;2024-02-16T02:49:25;100866.00;;;15.87;64.83
48517;BME280;34310;51.904;4.256;2024-02-16T02:51:51;100864.34;;;15.89;64.82
48517;BME280;34310;51.904;4.256;2024-02-16T02:54:18;100868.66;;;15.89;64.87
48517;BME280;34310;51.904;4.256;2024-02-16T02:56:45;100863.56;;;15.90;64.78
48517;BME280;34310;51.904;4.256;2024-02-16T02:59:11;100876.59;;;15.90;64.84
48517;BME280;34310;51.904;4.256;2024-02-16T03:01:38;100872.28;;;15.91;64.80
48517;BME280;34310;51.904;4.256;2024-02-16T03:04:04;100872.16;;;15.89;64.62
48517;BME280;34310;51.904;4.256;2024-02-16T03:06:31;100870.44;;;15.90;64.80
48517;BME280;34310;51.904;4.256;2024-02-16T03:08:58;100863.38;;;15.87;64.78
48517;BME280;34310;51.904;4.256;2024-02-16T03:11:24;100861.75;;;15.89;64.97
48517;BME280;34310;51.904;4.256;2024-02-16T03:13:51;100859.97;;;15.88;64.60
48517;BME280;34310;51.904;4.256;2024-02-16T03:16:17;100857.28;;;15.87;64.92
48517;BME280;34310;51.904;4.256;2024-02-16T03:18:44;100858.25;;;15.89;64.76
48517;BME280;34310;51.904;4.256;2024-02-16T03:21:14;100848.59;;;15.86;64.70
48517;BME280;34310;51.904;4.256;2024-02-16T03:23:41;100847.75;;;15.87;64.69
48517;BME280;34310;51.904;4.256;2024-02-16T03:26:18;100850.22;;;15.84;64.83
48517;BME280;34310;51.904;4.256;2024-02-16T03:28:46;100853.78;;;15.86;64.58
48517;BME280;34310;51.904;4.256;2024-02-16T03:31:20;100845.00;;;15.84;64.71
48517;BME280;34310;51.904;4.256;2024-02-16T03:33:47;100843.38;;;15.86;64.84
48517;BME280;34310;51.904;4.256;2024-02-16T03:36:15;100845.00;;;15.84;64.76
48517;BME280;34310;51.904;4.256;2024-02-16T03:38:45;100852.00;;;15.85;64.81
48517;BME280;34310;51.904;4.256;2024-02-16T03:41:21;100847.63;;;15.84;64.81
48517;BME280;34310;51.904;4.256;2024-02-16T03:43:48;100852.00;;;15.85;64.71
48517;BME280;34310;51.904;4.256;2024-02-16T03:46:14;100850.22;;;15.84;64.69
48517;BME280;34310;51.904;4.256;2024-02-16T03:48:41;100854.53;;;15.84;64.62
48517;BME280;34310;51.904;4.256;2024-02-16T03:51:08;100861.44;;;15.83;65.01
48517;BME280;34310;51.904;4.256;2024-02-16T03:53:35;100846.56;;;15.80;64.74
48517;BME280;34310;51.904;4.256;2024-02-16T03:56:01;100851.84;;;15.82;65.04
48517;BME280;34310;51.904;4.256;2024-02-16T03:58:28;100864.06;;;15.83;65.02
48517;BME280;34310;51.904;4.256;2024-02-16T04:00:55;100861.44;;;15.83;64.88
48517;BME280;34310;51.904;4.256;2024-02-16T04:03:21;100854.47;;;15.82;64.97
48517;BME280;34310;51.904;4.256;2024-02-16T04:05:48;100860.47;;;15.81;64.84
48517;BME280;34310;51.904;4.256;2024-02-16T04:08:15;100855.19;;;15.79;64.69
48517;BME280;34310;51.904;4.256;2024-02-16T04:10:41;100851.78;;;15.80;65.07
48517;BME280;34310;51.904;4.256;2024-02-16T04:13:08;100856.91;;;15.79;64.83
48517;BME280;34310;51.904;4.256;2024-02-16T04:15:34;100848.22;;;15.78;64.86
48517;BME280;34310;51.904;4.256;2024-02-16T04:18:01;100859.50;;;15.79;64.97
48517;BME280;34310;51.904;4.256;2024-02-16T04:20:28;100856.84;;;15.77;64.61
48517;BME280;34310;51.904;4.256;2024-02-16T04:22:54;100851.72;;;15.79;64.99
48517;BME280;34310;51.904;4.256;2024-02-16T04:25:21;100867.41;;;15.80;64.85
48517;BME280;34310;51.904;4.256;2024-02-16T04:27:48;100861.22;;;15.78;64.94
48517;BME280;34310;51.904;4.256;2024-02-16T04:30:14;100863.75;;;15.77;64.99
48517;BME280;34310;51.904;4.256;2024-02-16T04:32:41;100865.63;;;15.79;64.89
48517;BME280;34310;51.904;4.256;2024-02-16T04:35:08;100860.41;;;15.79;64.65
48517;BME280;34310;51.904;4.256;2024-02-16T04:37:34;100851.63;;;15.77;65.07
48517;BME280;34310;51.904;4.256;2024-02-16T04:40:01;100866.50;;;15.80;65.11
48517;BME280;34310;51.904;4.256;2024-02-16T04:42:28;100874.25;;;15.78;64.83
48517;BME280;34310;51.904;4.256;2024-02-16T04:44:54;100872.53;;;15.79;65.02
48517;BME280;34310;51.904;4.256;2024-02-16T04:47:21;100871.63;;;15.78;64.86
48517;BME280;34310;51.904;4.256;2024-02-16T04:49:47;100863.75;;;15.77;64.96
48517;BME280;34310;51.904;4.256;2024-02-16T04:52:14;100870.66;;;15.76;64.94
48517;BME280;34310;51.904;4.256;2024-02-16T04:54:40;100873.34;;;15.78;64.88
48517;BME280;34310;51.904;4.256;2024-02-16T04:57:07;100861.16;;;15.77;64.83
48517;BME280;34310;51.904;4.256;2024-02-16T04:59:34;100865.38;;;15.75;65.03
48517;BME280;34310;51.904;4.256;2024-02-16T05:02:00;100873.28;;;15.76;64.78
48517;BME280;34310;51.904;4.256;2024-02-16T05:04:27;100867.19;;;15.76;65.03
48517;BME280;34310;51.904;4.256;2024-02-16T05:06:53;100875.88;;;15.76;64.99
48517;BME280;34310;51.904;4.256;2024-02-16T05:09:20;100878.47;;;15.76;65.06
48517;BME280;34310;51.904;4.256;2024-02-16T05:11:46;100877.59;;;15.76;65.06
48517;BME280;34310;51.904;4.256;2024-02-16T05:14:13;100881.00;;;15.75;65.08
48517;BME280;34310;51.904;4.256;2024-02-16T05:16:46;100879.22;;;15.74;64.99
48517;BME280;34310;51.904;4.256;2024-02-16T05:19:13;100875.81;;;15.75;64.86
48517;BME280;34310;51.904;4.256;2024-02-16T05:21:40;100877.44;;;15.73;64.87
48517;BME280;34310;51.904;4.256;2024-02-16T05:24:06;100887.09;;;15.75;65.14
48517;BME280;34310;51.904;4.256;2024-02-16T05:26:33;100885.25;;;15.73;64.89
48517;BME280;34310;51.904;4.256;2024-02-16T05:28:59;100883.59;;;15.75;65.05
48517;BME280;34310;51.904;4.256;2024-02-16T05:31:26;100884.44;;;15.74;64.80
48517;BME280;34310;51.904;4.256;2024-02-16T05:33:53;100889.56;;;15.72;65.02
48517;BME280;34310;51.904;4.256;2024-02-16T05:36:20;100894.84;;;15.74;64.92
48517;BME280;34310;51.904;4.256;2024-02-16T05:38:47;100897.38;;;15.72;64.88
48517;BME280;34310;51.904;4.256;2024-02-16T05:41:15;100898.25;;;15.73;65.00
48517;BME280;34310;51.904;4.256;2024-02-16T05:43:43;100894.75;;;15.72;64.99
48517;BME280;34310;51.904;4.256;2024-02-16T05:46:13;100899.06;;;15.72;65.14
48517;BME280;34310;51.904;4.256;2024-02-16T05:48:40;100899.06;;;15.72;64.91
48517;BME280;34310;51.904;4.256;2024-02-16T05:51:06;100900.72;;;15.70;64.91
48517;BME280;34310;51.904;4.256;2024-02-16T05:53:33;100895.44;;;15.68;65.01
48517;BME280;34310;51.904;4.256;2024-02-16T05:56:00;100905.84;;;15.68;64.94
48517;BME280;34310;51.904;4.256;2024-02-16T05:58:27;100912.00;;;15.70;65.13
48517;BME280;34310;51.904;4.256;2024-02-16T06:00:53;100915.44;;;15.69;64.89
48517;BME280;34310;51.904;4.256;2024-02-16T06:03:20;100921.53;;;15.70;65.10
48517;BME280;34310;51.904;4.256;2024-02-16T06:05:47;100919.75;;;15.69;64.94
48517;BME280;34310;51.904;4.256;2024-02-16T06:08:14;100913.56;;;15.67;65.10
48517;BME280;34310;51.904;4.256;2024-02-16T06:10:41;100921.38;;;15.67;64.94
48517;BME280;34310;51.904;4.256;2024-02-16T06:13:08;100925.78;;;15.68;64.97
48517;BME280;34310;51.904;4.256;2024-02-16T06:15:34;100922.28;;;15.67;65.15
48517;BME280;34310;51.904;4.256;2024-02-16T06:18:01;100932.69;;;15.67;65.04
48517;BME280;34310;51.904;4.256;2024-02-16T06:20:28;100922.13;;;15.64;65.08
48517;BME280;34310;51.904;4.256;2024-02-16T06:22:55;100933.50;;;15.66;64.95
48517;BME280;34310;51.904;4.256;2024-02-16T06:25:21;100935.22;;;15.66;65.24
48517;BME280;34310;51.904;4.256;2024-02-16T06:27:48;100936.09;;;15.66;65.15
48517;BME280;34310;51.904;4.256;2024-02-16T06:30:14;100936.09;;;15.66;65.13
48517;BME280;34310;51.904;4.256;2024-02-16T06:32:41;100936.84;;;15.64;65.07
48517;BME280;34310;51.904;4.256;2024-02-16T06:35:08;100943.84;;;15.65;65.15
48517;BME280;34310;51.904;4.256;2024-02-16T06:37:35;100948.22;;;15.66;65.22
48517;BME280;34310;51.904;4.256;2024-02-16T06:40:02;100933.34;;;15.63;65.07
48517;BME280;34310;51.904;4.256;2024-02-16T06:42:28;100947.34;;;15.65;65.13
48517;BME280;34310;51.904;4.256;2024-02-16T06:44:55;100949.84;;;15.64;65.17
48517;BME280;34310;51.904;4.256;2024-02-16T06:47:22;100944.56;;;15.62;65.18
48517;BME280;34310;51.904;4.256;2024-02-16T06:49:48;100948.16;;;15.64;65.00
48517;BME280;34310;51.904;4.256;2024-02-16T06:52:15;100949.84;;;15.64;65.30
48517;BME280;34310;51.904;4.256;2024-02-16T06:54:42;100942.78;;;15.61;65.22
48517;BME280;34310;51.904;4.256;2024-02-16T06:57:08;100952.25;;;15.61;65.09
48517;BME280;34310;51.904;4.256;2024-02-16T06:59:38;100951.38;;;15.60;65.23
48517;BME280;34310;51.904;4.256;2024-02-16T07:02:05;100954.88;;;15.61;65.25
48517;BME280;34310;51.904;4.256;2024-02-16T07:04:31;100962.69;;;15.61;65.09
48517;BME280;34310;51.904;4.256;2024-02-16T07:06:58;100973.09;;;15.61;65.10
48517;BME280;34310;51.904;4.256;2024-02-16T07:09:25;100985.22;;;15.60;65.28
48517;BME280;34310;51.904;4.256;2024-02-16T07:11:52;100991.41;;;15.62;65.09
48517;BME280;34310;51.904;4.256;2024-02-16T07:14:20;100995.72;;;15.62;65.36
48517;BME280;34310;51.904;4.256;2024-02-16T07:16:46;100988.50;;;15.58;65.25
48517;BME280;34310;51.904;4.256;2024-02-16T07:19:13;101002.66;;;15.61;65.09
48517;BME280;34310;51.904;4.256;2024-02-16T07:21:40;101012.13;;;15.61;65.26
48517;BME280;34310;51.904;4.256;2024-02-16T07:24:07;101022.66;;;15.62;65.37
48517;BME280;34310;51.904;4.256;2024-02-16T07:26:33;101025.13;;;15.61;65.15
48517;BME280;34310;51.904;4.256;2024-02-16T07:29:00;101027.75;;;15.61;65.22
48517;BME280;34310;51.904;4.256;2024-02-16T07:31:32;101030.25;;;15.59;65.15
48517;BME280;34310;51.904;4.256;2024-02-16T07:33:58;101027.53;;;15.58;65.32
48517;BME280;34310;51.904;4.256;2024-02-16T07:36:25;101038.97;;;15.60;65.26
48517;BME280;34310;51.904;4.256;2024-02-16T07:38:52;101036.38;;;15.60;65.22
48517;BME280;34310;51.904;4.256;2024-02-16T07:41:18;101047.66;;;15.60;65.14
48517;BME280;34310;51.904;4.256;2024-02-16T07:43:45;101057.28;;;15.61;65.11
48517;BME280;34310;51.904;4.256;2024-02-16T07:46:11;101051.16;;;15.61;65.35
48517;BME280;34310;51.904;4.256;2024-02-16T07:48:38;101058.97;;;15.61;65.28
48517;BME280;34310;51.904;4.256;2024-02-16T07:51:05;101058.19;;;15.62;65.32
48517;BME280;34310;51.904;4.256;2024-02-16T07:53:31;101066.31;;;15.68;65.28
48517;BME280;34310;51.904;4.256;2024-02-16T07:55:58;101067.13;;;15.83;65.25
48517;BME280;34310;51.904;4.256;2024-02-16T07:58:24;101061.69;;;15.95;64.92
48517;BME280;34310;51.904;4.256;2024-02-16T08:00:51;101056.88;;;16.02;64.83
48517;BME280;34310;51.904;4.256;2024-02-16T08:03:18;101063.38;;;16.10;64.37
48517;BME280;34310;51.904;4.256;2024-02-16T08:05:44;101060.38;;;16.19;64.08
48517;BME280;34310;51.904;4.256;2024-02-16T08:08:11;101058.88;;;16.24;64.02
48517;BME280;34310;51.904;4.256;2024-02-16T08:10:38;101068.81;;;16.31;64.07
48517;BME280;34310;51.904;4.256;2024-02-16T08:13:04;101074.91;;;16.32;63.90
48517;BME280;34310;51.904;4.256;2024-02-16T08:15:31;101082.06;;;16.36;63.57
48517;BME280;34310;51.904;4.256;2024-02-16T08:17:57;101100.53;;;16.40;63.70
48517;BME280;34310;51.904;4.256;2024-02-16T08:20:24;101103.28;;;16.43;63.61
48517;BME280;34310;51.904;4.256;2024-02-16T08:22:51;101100.75;;;16.45;63.37
48517;BME280;34310;51.904;4.256;2024-02-16T08:25:17;101094.72;;;16.46;63.50
48517;BME280;34310;51.904;4.256;2024-02-16T08:27:44;101093.22;;;16.50;63.47
48517;BME280;34310;51.904;4.256;2024-02-16T08:30:11;101100.94;;;16.48;63.47
48517;BME280;34310;51.904;4.256;2024-02-16T08:32:38;101109.97;;;16.55;63.39
48517;BME280;34310;51.904;4.256;2024-02-16T08:35:05;101105.50;;;16.52;63.02
48517;BME280;34310;51.904;4.256;2024-02-16T08:37:32;101119.56;;;16.56;62.99
48517;BME280;34310;51.904;4.256;2024-02-16T08:39:59;101125.59;;;16.55;63.07
48517;BME280;34310;51.904;4.256;2024-02-16T08:42:25;101126.56;;;16.57;62.84
48517;BME280;34310;51.904;4.256;2024-02-16T08:44:52;101136.34;;;16.61;63.14
48517;BME280;34310;51.904;4.256;2024-02-16T08:47:18;101136.19;;;16.58;63.23
48517;BME280;34310;51.904;4.256;2024-02-16T08:49:45;101156.22;;;16.59;62.97
48517;BME280;34310;51.904;4.256;2024-02-16T08:52:12;101158.09;;;16.61;63.11
48517;BME280;34310;51.904;4.256;2024-02-16T08:54:39;101164.94;;;16.59;63.21
48517;BME280;34310;51.904;4.256;2024-02-16T08:57:06;101171.94;;;16.60;63.13
48517;BME280;34310;51.904;4.256;2024-02-16T08:59:32;101166.56;;;16.57;63.13
48517;BME280;34310;51.904;4.256;2024-02-16T09:01:59;101179.59;;;16.57;63.27
48517;BME280;34310;51.904;4.256;2024-02-16T09:04:25;101176.69;;;16.51;63.62
48517;BME280;34310;51.904;4.256;2024-02-16T09:06:52;101175.88;;;16.52;63.61
48517;BME280;34310;51.904;4.256;2024-02-16T09:09:19;101174.25;;;16.54;63.49
48517;BME280;34310;51.904;4.256;2024-02-16T09:11:45;101182.22;;;16.57;63.23
48517;BME280;34310;51.904;4.256;2024-02-16T09:14:12;101185.47;;;16.53;63.48
48517;BME280;34310;51.904;4.256;2024-02-16T09:16:38;101194.28;;;16.55;63.75
48517;BME280;34310;51.904;4.256;2024-02-16T09:19:05;101194.28;;;16.55;63.59
48517;BME280;34310;51.904;4.256;2024-02-16T09:21:32;101197.03;;;16.58;63.43
48517;BME280;34310;51.904;4.256;2024-02-16T09:23:59;101210.16;;;16.60;63.38
48517;BME280;34310;51.904;4.256;2024-02-16T09:26:26;101217.97;;;16.60;63.37
48517;BME280;34310;51.904;4.256;2024-02-16T09:28:52;101215.88;;;16.53;63.25
48517;BME280;34310;51.904;4.256;2024-02-16T09:31:19;101221.63;;;16.47;63.73
48517;BME280;34310;51.904;4.256;2024-02-16T09:33:45;101215.19;;;16.40;63.93
48517;BME280;34310;51.904;4.256;2024-02-16T09:36:12;101231.31;;;16.33;63.97
48517;BME280;34310;51.904;4.256;2024-02-16T09:38:39;101231.91;;;16.28;64.23
48517;BME280;34310;51.904;4.256;2024-02-16T09:41:05;101253.47;;;16.25;64.20
48517;BME280;34310;51.904;4.256;2024-02-16T09:43:32;101249.63;;;16.19;64.43
48517;BME280;34310;51.904;4.256;2024-02-16T09:45:59;101259.88;;;16.16;64.64
48517;BME280;34310;51.904;4.256;2024-02-16T09:48:26;101279.81;;;16.15;64.45
48517;BME280;34310;51.904;4.256;2024-02-16T09:50:55;101274.53;;;16.14;64.62
48517;BME280;34310;51.904;4.256;2024-02-16T09:53:27;101277.78;;;16.09;64.52
48517;BME280;34310;51.904;4.256;2024-02-16T09:55:54;101277.69;;;16.08;64.56
48517;BME280;34310;51.904;4.256;2024-02-16T09:58:21;101294.22;;;16.08;64.65
48517;BME280;34310;51.904;4.256;2024-02-16T10:00:54;101302.75;;;16.06;64.63
48517;BME280;34310;51.904;4.256;2024-02-16T10:03:28;101304.28;;;16.02;64.77
48517;BME280;34310;51.904;4.256;2024-02-16T10:06:09;101301.53;;;15.99;64.80
48517;BME280;34310;51.904;4.256;2024-02-16T10:08:50;101321.06;;;16.07;65.12
48517;BME280;34310;51.904;4.256;2024-02-16T10:11:20;101329.63;;;16.05;65.42
48517;BME280;34310;51.904;4.256;2024-02-16T10:14:04;101340.03;;;16.05;65.60
48517;BME280;34310;51.904;4.256;2024-02-16T10:16:31;101346.13;;;16.05;65.42
48517;BME280;34310;51.904;4.256;2024-02-16T10:19:07;101340.69;;;16.01;65.51
48517;BME280;34310;51.904;4.256;2024-02-16T10:21:35;101347.69;;;16.02;65.40
48517;BME280;34310;51.904;4.256;2024-02-16T10:24:04;101343.19;;;15.99;65.69
48517;BME280;34310;51.904;4.256;2024-02-16T10:26:31;101347.41;;;15.97;65.44
48517;BME280;34310;51.904;4.256;2024-02-16T10:28:58;101363.94;;;15.98;65.54
48517;BME280;34310;51.904;4.256;2024-02-16T10:31:25;101361.25;;;15.96;65.32
48517;BME280;34310;51.904;4.256;2024-02-16T10:33:52;101365.47;;;15.94;65.62
48517;BME280;34310;51.904;4.256;2024-02-16T10:36:20;101381.19;;;15.96;65.45
48517;BME280;34310;51.904;4.256;2024-02-16T10:38:48;101375.81;;;15.93;65.41
48517;BME280;34310;51.904;4.256;2024-02-16T10:41:16;101379.22;;;15.92;65.37
48517;BME280;34310;51.904;4.256;2024-02-16T10:43:47;101389.63;;;15.92;65.55
48517;BME280;34310;51.904;4.256;2024-02-16T10:46:17;101394.75;;;15.90;65.33
48517;BME280;34310;51.904;4.256;2024-02-16T10:48:44;101398.06;;;15.88;65.30
48517;BME280;34310;51.904;4.256;2024-02-16T10:51:11;101413.75;;;15.89;65.36
48517;BME280;34310;51.904;4.256;2024-02-16T10:53:40;101421.50;;;15.88;65.22
48517;BME280;34310;51.904;4.256;2024-02-16T10:56:07;101433.69;;;15.89;65.29
48517;BME280;34310;51.904;4.256;2024-02-16T10:58:34;101432.81;;;15.88;65.39
48517;BME280;34310;51.904;4.256;2024-02-16T11:01:08;101441.34;;;15.86;65.64
48517;BME280;34310;51.904;4.256;2024-02-16T11:03:37;101444.84;;;15.86;65.31
48517;BME280;34310;51.904;4.256;2024-02-16T11:06:15;101443.13;;;15.87;65.32
48517;BME280;34310;51.904;4.256;2024-02-16T11:08:42;101446.53;;;15.86;65.41
48517;BME280;34310;51.904;4.256;2024-02-16T11:11:09;101447.25;;;15.83;65.48
48517;BME280;34310;51.904;4.256;2024-02-16T11:13:37;101451.66;;;15.84;65.25
48517;BME280;34310;51.904;4.256;2024-02-16T11:16:07;101458.66;;;15.85;65.36
48517;BME280;34310;51.904;4.256;2024-02-16T11:18:42;101466.28;;;15.82;65.61
48517;BME280;34310;51.904;4.256;2024-02-16T11:21:12;101468.91;;;15.82;65.33
48517;BME280;34310;51.904;4.256;2024-02-16T11:23:39;101485.50;;;15.84;65.35
48517;BME280;34310;51.904;4.256;2024-02-16T11:26:10;101481.03;;;15.82;65.35
48517;BME280;34310;51.904;4.256;2024-02-16T11:28:39;101484.44;;;15.80;65.35
48517;BME280;34310;51.904;4.256;2024-02-16T11:31:06;101485.25;;;15.79;65.25
48517;BME280;34310;51.904;4.256;2024-02-16T11:33:34;101498.53;;;15.84;65.32
48517;BME280;34310;51.904;4.256;2024-02-16T11:36:03;101501.94;;;15.83;65.38
48517;BME280;34310;51.904;4.256;2024-02-16T11:38:33;101486.31;;;15.83;65.35
48517;BME280;34310;51.904;4.256;2024-02-16T11:41:01;101486.50;;;15.86;65.18
48517;BME280;34310;51.904;4.256;2024-02-16T11:43:29;101488.22;;;15.86;65.50
48517;BME280;34310;51.904;4.256;2024-02-16T11:45:56;101500.41;;;15.87;65.52
48517;BME280;34310;51.904;4.256;2024-02-16T11:48:26;101504.72;;;15.86;65.21
48517;BME280;34310;51.904;4.256;2024-02-16T11:51:04;101518.81;;;15.90;65.21
48517;BME280;34310;51.904;4.256;2024-02-16T11:53:31;101511.13;;;15.91;65.13
48517;BME280;34310;51.904;4.256;2024-02-16T11:55:58;101519.03;;;15.93;65.08
48517;BME280;34310;51.904;4.256;2024-02-16T11:58:25;101527.47;;;16.03;65.41
48517;BME280;34310;51.904;4.256;2024-02-16T12:00:52;101530.34;;;16.08;65.02
48517;BME280;34310;51.904;4.256;2024-02-16T12:03:20;101524.16;;;16.06;65.57
48517;BME280;34310;51.904;4.256;2024-02-16T12:05:51;101532.97;;;16.08;65.13
48517;BME280;34310;51.904;4.256;2024-02-16T12:08:19;101526.13;;;16.10;65.48
48517;BME280;34310;51.904;4.256;2024-02-16T12:10:49;101532.91;;;16.21;65.04
48517;BME280;34310;51.904;4.256;2024-02-16T12:13:20;101531.38;;;16.25;64.99
48517;BME280;34310;51.904;4.256;2024-02-16T12:15:51;101545.84;;;16.20;65.24
48517;BME280;34310;51.904;4.256;2024-02-16T12:18:25;101548.44;;;16.20;65.03
48517;BME280;34310;51.904;4.256;2024-02-16T12:21:03;101545.44;;;16.14;65.04
48517;BME280;34310;51.904;4.256;2024-02-16T12:23:30;101548.94;;;16.14;65.05
48517;BME280;34310;51.904;4.256;2024-02-16T12:25:57;101559.47;;;16.16;65.05
48517;BME280;34310;51.904;4.256;2024-02-16T12:28:26;101560.28;;;16.15;65.29
48517;BME280;34310;51.904;4.256;2024-02-16T12:30:52;101561.78;;;16.11;65.05
48517;BME280;34310;51.904;4.256;2024-02-16T12:33:20;101566.28;;;16.14;64.98
48517;BME280;34310;51.904;4.256;2024-02-16T12:35:47;101572.41;;;16.14;65.19
48517;BME280;34310;51.904;4.256;2024-02-16T12:38:14;101568.97;;;16.15;65.08
48517;BME280;34310;51.904;4.256;2024-02-16T12:40:40;101576.00;;;16.16;64.97
48517;BME280;34310;51.904;4.256;2024-02-16T12:43:07;101583.81;;;16.16;64.95
48517;BME280;34310;51.904;4.256;2024-02-16T12:45:33;101586.31;;;16.15;65.17
48517;BME280;34310;51.904;4.256;2024-02-16T12:48:00;101590.81;;;16.17;65.09
48517;BME280;34310;51.904;4.256;2024-02-16T12:50:27;101589.91;;;16.17;65.10